sensor_id;sensor_type;location;lat;lon;timestamp;temperature;humidity
35559;DHT22;21661;50.794;-1.066;2023-04-24T00:00:24;9.20;99.90
35559;DHT22;21661;50.794;-1.066;2023-04-24T00:02:49;9.20;99.90
35559;DHT22;21661;50.794;-1.066;2023-04-24T00:05:16;9.10;99.90
35559;DHT22;21661;50.794;-1.066;2023-04-24T00:07:43;9.10;99.90
35559;DHT22;21661;50.794;-1.066;2023-04-24T00:10:09;9.10;99.90
35559;DHT22;21661;50.794;-1.066;2023-04-24T00:12:35;9.10;99.90
35559;DHT22;21661;50.794;-1.066;2023-04-24T00:15:01;9.10;99.90
35559;DHT22;21661;50.794;-1.066;2023-04-24T00:17:27;9.10;99.90
35559;DHT22;21661;50.794;-1.066;2023-04-24T00:19:53;9.10;99.90
35559;DHT22;21661;50.794;-1.066;2023-04-24T00:22:24;9.10;99.90
35559;DHT22;21661;50.794;-1.066;2023-04-24T00:24:50;9.20;99.90
35559;DHT22;21661;50.794;-1.066;2023-04-24T00:27:16;9.10;99.90
35559;DHT22;21661;50.794;-1.066;2023-04-24T00:29:41;9.10;99.90
35559;DHT22;21661;50.794;-1.066;2023-04-24T00:32:07;9.10;99.90
35559;DHT22;21661;50.794;-1.066;2023-04-24T00:34:33;9.10;99.90
35559;DHT22;21661;50.794;-1.066;2023-04-24T00:36:58;9.10;99.90
35559;DHT22;21661;50.794;-1.066;2023-04-24T00:39:24;9.10;99.90
35559;DHT22;21661;50.794;-1.066;2023-04-24T00:41:50;9.10;99.90
35559;DHT22;21661;50.794;-1.066;2023-04-24T00:44:16;9.10;99.90
35559;DHT22;21661;50.794;-1.066;2023-04-24T00:46:42;9.10;99.90
35559;DHT22;21661;50.794;-1.066;2023-04-24T00:49:08;9.10;99.90
35559;DHT22;21661;50.794;-1.066;2023-04-24T00:51:34;9.10;99.90
35559;DHT22;21661;50.794;-1.066;2023-04-24T00:54:00;9.10;99.90
35559;DHT22;21661;50.794;-1.066;2023-04-24T00:56:27;9.10;99.90
35559;DHT22;21661;50.794;-1.066;2023-04-24T00:58:53;9.10;99.90
35559;DHT22;21661;50.794;-1.066;2023-04-24T01:01:22;9.10;99.90
35559;DHT22;21661;50.794;-1.066;2023-04-24T01:03:49;9.10;99.90
35559;DHT22;21661;50.794;-1.066;2023-04-24T01:06:16;9.10;99.90
35559;DHT22;21661;50.794;-1.066;2023-04-24T01:08:43;9.10;99.90
35559;DHT22;21661;50.794;-1.066;2023-04-24T01:11:10;9.00;99.90
35559;DHT22;21661;50.794;-1.066;2023-04-24T01:13:36;9.00;99.90
35559;DHT22;21661;50.794;-1.066;2023-04-24T01:16:01;9.10;99.90
35559;DHT22;21661;50.794;-1.066;2023-04-24T01:18:27;9.00;99.90
35559;DHT22;21661;50.794;-1.066;2023-04-24T01:20:57;9.00;99.90
35559;DHT22;21661;50.794;-1.066;2023-04-24T01:23:23;8.90;99.90
35559;DHT22;21661;50.794;-1.066;2023-04-24T01:25:49;8.90;99.90
35559;DHT22;21661;50.794;-1.066;2023-04-24T01:28:16;8.80;99.90
35559;DHT22;21661;50.794;-1.066;2023-04-24T01:30:42;8.90;99.90
35559;DHT22;21661;50.794;-1.066;2023-04-24T01:33:08;8.80;99.90
35559;DHT22;21661;50.794;-1.066;2023-04-24T01:35:34;8.80;99.90
35559;DHT22;21661;50.794;-1.066;2023-04-24T01:38:01;8.80;99.90
35559;DHT22;21661;50.794;-1.066;2023-04-24T01:40:27;8.80;99.90
35559;DHT22;21661;50.794;-1.066;2023-04-24T01:42:53;8.90;99.90
35559;DHT22;21661;50.794;-1.066;2023-04-24T01:45:18;8.80;99.90
35559;DHT22;21661;50.794;-1.066;2023-04-24T01:47:45;8.80;99.90
35559;DHT22;21661;50.794;-1.066;2023-04-24T01:50:11;8.90;99.90
35559;DHT22;21661;50.794;-1.066;2023-04-24T01:52:37;8.80;99.90
35559;DHT22;21661;50.794;-1.066;2023-04-24T01:55:03;8.80;99.90
35559;DHT22;21661;50.794;-1.066;2023-04-24T01:57:30;8.80;99.90
35559;DHT22;21661;50.794;-1.066;2023-04-24T01:59:56;8.70;99.90
35559;DHT22;21661;50.794;-1.066;2023-04-24T02:02:22;8.70;99.90
35559;DHT22;21661;50.794;-1.066;2023-04-24T02:04:49;8.70;99.90
35559;DHT22;21661;50.794;-1.066;2023-04-24T02:07:15;8.70;99.90
35559;DHT22;21661;50.794;-1.066;2023-04-24T02:09:41;8.70;99.90
35559;DHT22;21661;50.794;-1.066;2023-04-24T02:12:06;8.60;99.90
35559;DHT22;21661;50.794;-1.066;2023-04-24T02:14:32;8.60;99.90
35559;DHT22;21661;50.794;-1.066;2023-04-24T02:16:58;8.60;99.90
35559;DHT22;21661;50.794;-1.066;2023-04-24T02:19:23;8.60;99.90
35559;DHT22;21661;50.794;-1.066;2023-04-24T02:21:49;8.60;99.90
35559;DHT22;21661;50.794;-1.066;2023-04-24T02:24:15;8.60;99.90
35559;DHT22;21661;50.794;-1.066;2023-04-24T02:26:41;8.60;99.90
35559;DHT22;21661;50.794;-1.066;2023-04-24T02:29:06;8.60;99.90
35559;DHT22;21661;50.794;-1.066;2023-04-24T02:31:32;8.60;99.90
35559;DHT22;21661;50.794;-1.066;2023-04-24T02:33:58;8.60;99.90
35559;DHT22;21661;50.794;-1.066;2023-04-24T02:36:23;8.50;99.90
35559;DHT22;21661;50.794;-1.066;2023-04-24T02:38:49;8.50;99.90
35559;DHT22;21661;50.794;-1.066;2023-04-24T02:41:14;8.40;99.90
35559;DHT22;21661;50.794;-1.066;2023-04-24T02:43:40;8.40;99.90
35559;DHT22;21661;50.794;-1.066;2023-04-24T02:46:06;8.40;99.90
35559;DHT22;21661;50.794;-1.066;2023-04-24T02:48:31;8.30;99.90
35559;DHT22;21661;50.794;-1.066;2023-04-24T02:50:57;8.40;99.90
35559;DHT22;21661;50.794;-1.066;2023-04-24T02:53:23;8.40;99.90
35559;DHT22;21661;50.794;-1.066;2023-04-24T02:55:48;8.40;99.90
35559;DHT22;21661;50.794;-1.066;2023-04-24T02:58:14;8.30;99.90
35559;DHT22;21661;50.794;-1.066;2023-04-24T03:00:40;8.40;99.90
35559;DHT22;21661;50.794;-1.066;2023-04-24T03:03:05;8.30;99.90
35559;DHT22;21661;50.794;-1.066;2023-04-24T03:05:32;8.30;99.90
35559;DHT22;21661;50.794;-1.066;2023-04-24T03:07:57;8.30;99.90
35559;DHT22;21661;50.794;-1.066;2023-04-24T03:10:23;8.40;99.90
35559;DHT22;21661;50.794;-1.066;2023-04-24T03:12:49;8.40;99.90
35559;DHT22;21661;50.794;-1.066;2023-04-24T03:15:14;8.20;99.90
35559;DHT22;21661;50.794;-1.066;2023-04-24T03:17:40;8.30;99.90
35559;DHT22;21661;50.794;-1.066;2023-04-24T03:20:07;8.30;99.90
35559;DHT22;21661;50.794;-1.066;2023-04-24T03:22:33;8.30;99.90
35559;DHT22;21661;50.794;-1.066;2023-04-24T03:25:00;8.20;99.90
35559;DHT22;21661;50.794;-1.066;2023-04-24T03:27:25;8.30;99.90
35559;DHT22;21661;50.794;-1.066;2023-04-24T03:29:51;8.30;99.90
35559;DHT22;21661;50.794;-1.066;2023-04-24T03:32:23;8.30;99.90
35559;DHT22;21661;50.794;-1.066;2023-04-24T03:34:49;8.30;99.90
35559;DHT22;21661;50.794;-1.066;2023-04-24T03:37:16;8.20;99.90
35559;DHT22;21661;50.794;-1.066;2023-04-24T03:39:42;8.30;99.90
35559;DHT22;21661;50.794;-1.066;2023-04-24T03:42:07;8.30;99.90
35559;DHT22;21661;50.794;-1.066;2023-04-24T03:44:34;8.30;99.90
35559;DHT22;21661;50.794;-1.066;2023-04-24T03:47:00;8.30;99.90
35559;DHT22;21661;50.794;-1.066;2023-04-24T03:49:26;8.30;99.90
35559;DHT22;21661;50.794;-1.066;2023-04-24T03:51:51;8.20;99.90
35559;DHT22;21661;50.794;-1.066;2023-04-24T03:54:18;8.30;99.90
35559;DHT22;21661;50.794;-1.066;2023-04-24T03:56:44;8.30;99.90
35559;DHT22;21661;50.794;-1.066;2023-04-24T03:59:09;8.30;99.90
35559;DHT22;21661;50.794;-1.066;2023-04-24T04:01:35;8.30;99.90
35559;DHT22;21661;50.794;-1.066;2023-04-24T04:04:05;8.30;99.90
35559;DHT22;21661;50.794;-1.066;2023-04-24T04:06:31;8.30;99.90
35559;DHT22;21661;50.794;-1.066;2023-04-24T04:08:57;8.30;99.90
35559;DHT22;21661;50.794;-1.066;2023-04-24T04:11:23;8.30;99.90
35559;DHT22;21661;50.794;-1.066;2023-04-24T04:13:49;8.30;99.90
35559;DHT22;21661;50.794;-1.066;2023-04-24T04:16:14;8.20;99.90
35559;DHT22;21661;50.794;-1.066;2023-04-24T04:18:45;8.10;99.90
35559;DHT22;21661;50.794;-1.066;2023-04-24T04:21:11;8.20;99.90
35559;DHT22;21661;50.794;-1.066;2023-04-24T04:23:36;8.20;99.90
35559;DHT22;21661;50.794;-1.066;2023-04-24T04:26:03;8.20;99.90
35559;DHT22;21661;50.794;-1.066;2023-04-24T04:28:29;8.20;99.90
35559;DHT22;21661;50.794;-1.066;2023-04-24T04:30:57;8.20;99.90
35559;DHT22;21661;50.794;-1.066;2023-04-24T04:33:23;8.00;99.90
35559;DHT22;21661;50.794;-1.066;2023-04-24T04:35:49;8.00;99.90
35559;DHT22;21661;50.794;-1.066;2023-04-24T04:38:17;8.00;99.90
35559;DHT22;21661;50.794;-1.066;2023-04-24T04:40:44;8.00;99.90
35559;DHT22;21661;50.794;-1.066;2023-04-24T04:43:10;8.00;99.90
35559;DHT22;21661;50.794;-1.066;2023-04-24T04:45:39;8.00;99.90
35559;DHT22;21661;50.794;-1.066;2023-04-24T04:48:06;8.00;99.90
35559;DHT22;21661;50.794;-1.066;2023-04-24T04:50:34;8.10;99.90
35559;DHT22;21661;50.794;-1.066;2023-04-24T04:53:00;8.00;99.90
35559;DHT22;21661;50.794;-1.066;2023-04-24T04:55:26;8.10;99.90
35559;DHT22;21661;50.794;-1.066;2023-04-24T04:57:51;8.10;99.90
35559;DHT22;21661;50.794;-1.066;2023-04-24T05:00:17;8.10;99.90
35559;DHT22;21661;50.794;-1.066;2023-04-24T05:02:43;8.10;99.90
35559;DHT22;21661;50.794;-1.066;2023-04-24T05:05:09;8.10;99.90
35559;DHT22;21661;50.794;-1.066;2023-04-24T05:07:35;8.10;99.90
35559;DHT22;21661;50.794;-1.066;2023-04-24T05:10:01;8.10;99.90
35559;DHT22;21661;50.794;-1.066;2023-04-24T05:12:26;8.20;99.90
35559;DHT22;21661;50.794;-1.066;2023-04-24T05:14:52;8.20;99.90
35559;DHT22;21661;50.794;-1.066;2023-04-24T05:17:18;8.20;99.90
35559;DHT22;21661;50.794;-1.066;2023-04-24T05:19:44;8.20;99.90
35559;DHT22;21661;50.794;-1.066;2023-04-24T05:22:10;8.20;99.90
35559;DHT22;21661;50.794;-1.066;2023-04-24T05:24:37;8.20;99.90
35559;DHT22;21661;50.794;-1.066;2023-04-24T05:27:03;8.20;99.90
35559;DHT22;21661;50.794;-1.066;2023-04-24T05:29:30;8.20;99.90
35559;DHT22;21661;50.794;-1.066;2023-04-24T05:31:59;8.30;99.90
35559;DHT22;21661;50.794;-1.066;2023-04-24T05:34:26;8.30;99.90
35559;DHT22;21661;50.794;-1.066;2023-04-24T05:36:52;8.30;99.90
35559;DHT22;21661;50.794;-1.066;2023-04-24T05:39:18;8.40;99.90
35559;DHT22;21661;50.794;-1.066;2023-04-24T05:41:45;8.40;99.90
35559;DHT22;21661;50.794;-1.066;2023-04-24T05:44:10;8.40;99.90
35559;DHT22;21661;50.794;-1.066;2023-04-24T05:46:36;8.40;99.90
35559;DHT22;21661;50.794;-1.066;2023-04-24T05:49:02;8.30;99.90
35559;DHT22;21661;50.794;-1.066;2023-04-24T05:51:28;8.30;99.90
35559;DHT22;21661;50.794;-1.066;2023-04-24T05:53:54;8.30;99.90
35559;DHT22;21661;50.794;-1.066;2023-04-24T05:56:19;8.30;99.90
35559;DHT22;21661;50.794;-1.066;2023-04-24T05:58:45;8.30;99.90
35559;DHT22;21661;50.794;-1.066;2023-04-24T06:01:12;8.30;99.90
35559;DHT22;21661;50.794;-1.066;2023-04-24T06:03:38;8.40;99.90
35559;DHT22;21661;50.794;-1.066;2023-04-24T06:06:06;8.40;99.90
35559;DHT22;21661;50.794;-1.066;2023-04-24T06:08:31;8.40;99.90
35559;DHT22;21661;50.794;-1.066;2023-04-24T06:10:58;8.50;99.90
35559;DHT22;21661;50.794;-1.066;2023-04-24T06:13:23;8.50;99.90
35559;DHT22;21661;50.794;-1.066;2023-04-24T06:15:49;8.50;99.90
35559;DHT22;21661;50.794;-1.066;2023-04-24T06:18:14;8.50;99.90
35559;DHT22;21661;50.794;-1.066;2023-04-24T06:20:40;8.50;99.90
35559;DHT22;21661;50.794;-1.066;2023-04-24T06:23:06;8.50;99.90
35559;DHT22;21661;50.794;-1.066;2023-04-24T06:25:31;8.50;99.90
35559;DHT22;21661;50.794;-1.066;2023-04-24T06:27:57;8.50;99.90
35559;DHT22;21661;50.794;-1.066;2023-04-24T06:30:23;8.60;99.90
35559;DHT22;21661;50.794;-1.066;2023-04-24T06:32:48;8.60;99.90
35559;DHT22;21661;50.794;-1.066;2023-04-24T06:35:14;8.60;99.90
35559;DHT22;21661;50.794;-1.066;2023-04-24T06:37:41;8.60;99.90
35559;DHT22;21661;50.794;-1.066;2023-04-24T06:40:07;8.60;99.90
35559;DHT22;21661;50.794;-1.066;2023-04-24T06:42:33;8.60;99.90
35559;DHT22;21661;50.794;-1.066;2023-04-24T06:45:00;8.60;99.90
35559;DHT22;21661;50.794;-1.066;2023-04-24T06:47:26;8.60;99.90
35559;DHT22;21661;50.794;-1.066;2023-04-24T06:49:51;8.60;99.90
35559;DHT22;21661;50.794;-1.066;2023-04-24T06:52:18;8.70;99.90
35559;DHT22;21661;50.794;-1.066;2023-04-24T06:54:43;8.70;99.90
35559;DHT22;21661;50.794;-1.066;2023-04-24T06:57:09;8.70;99.90
35559;DHT22;21661;50.794;-1.066;2023-04-24T06:59:36;8.70;99.90
35559;DHT22;21661;50.794;-1.066;2023-04-24T07:02:02;8.80;99.90
35559;DHT22;21661;50.794;-1.066;2023-04-24T07:04:28;8.80;99.90
35559;DHT22;21661;50.794;-1.066;2023-04-24T07:06:54;8.80;99.90
35559;DHT22;21661;50.794;-1.066;2023-04-24T07:09:21;8.90;99.90
35559;DHT22;21661;50.794;-1.066;2023-04-24T07:11:47;9.00;99.90
35559;DHT22;21661;50.794;-1.066;2023-04-24T07:14:13;9.00;99.90
35559;DHT22;21661;50.794;-1.066;2023-04-24T07:16:39;9.00;99.90
35559;DHT22;21661;50.794;-1.066;2023-04-24T07:19:05;9.20;99.90
35559;DHT22;21661;50.794;-1.066;2023-04-24T07:21:30;9.20;99.90
35559;DHT22;21661;50.794;-1.066;2023-04-24T07:24:00;9.20;99.90
35559;DHT22;21661;50.794;-1.066;2023-04-24T07:26:27;9.30;99.90
35559;DHT22;21661;50.794;-1.066;2023-04-24T07:28:53;9.40;99.90
35559;DHT22;21661;50.794;-1.066;2023-04-24T07:31:19;9.40;99.90
35559;DHT22;21661;50.794;-1.066;2023-04-24T07:33:44;9.50;99.90
35559;DHT22;21661;50.794;-1.066;2023-04-24T07:36:10;9.60;99.90
35559;DHT22;21661;50.794;-1.066;2023-04-24T07:38:44;9.70;99.90
35559;DHT22;21661;50.794;-1.066;2023-04-24T07:41:10;9.80;99.90
35559;DHT22;21661;50.794;-1.066;2023-04-24T07:43:35;9.80;99.90
35559;DHT22;21661;50.794;-1.066;2023-04-24T07:46:01;9.90;99.90
35559;DHT22;21661;50.794;-1.066;2023-04-24T07:48:27;10.10;99.90
35559;DHT22;21661;50.794;-1.066;2023-04-24T07:50:53;10.10;99.90
35559;DHT22;21661;50.794;-1.066;2023-04-24T07:53:19;10.00;99.90
35559;DHT22;21661;50.794;-1.066;2023-04-24T07:55:44;10.00;99.90
35559;DHT22;21661;50.794;-1.066;2023-04-24T07:58:10;10.00;99.90
35559;DHT22;21661;50.794;-1.066;2023-04-24T08:00:35;9.90;99.90
35559;DHT22;21661;50.794;-1.066;2023-04-24T08:03:01;9.90;99.90
35559;DHT22;21661;50.794;-1.066;2023-04-24T08:05:27;9.90;99.90
35559;DHT22;21661;50.794;-1.066;2023-04-24T08:07:54;10.00;99.90
35559;DHT22;21661;50.794;-1.066;2023-04-24T08:10:21;10.10;99.90
35559;DHT22;21661;50.794;-1.066;2023-04-24T08:12:47;10.20;99.90
35559;DHT22;21661;50.794;-1.066;2023-04-24T08:15:12;10.20;99.90
35559;DHT22;21661;50.794;-1.066;2023-04-24T08:17:38;10.30;99.90
35559;DHT22;21661;50.794;-1.066;2023-04-24T08:20:04;10.40;99.90
35559;DHT22;21661;50.794;-1.066;2023-04-24T08:22:31;10.40;99.90
35559;DHT22;21661;50.794;-1.066;2023-04-24T08:24:58;10.50;99.90
35559;DHT22;21661;50.794;-1.066;2023-04-24T08:27:24;10.50;99.90
35559;DHT22;21661;50.794;-1.066;2023-04-24T08:29:52;10.40;99.90
35559;DHT22;21661;50.794;-1.066;2023-04-24T08:32:18;10.50;99.90
35559;DHT22;21661;50.794;-1.066;2023-04-24T08:34:43;10.50;99.90
35559;DHT22;21661;50.794;-1.066;2023-04-24T08:37:09;10.50;99.90
35559;DHT22;21661;50.794;-1.066;2023-04-24T08:39:35;10.60;99.90
35559;DHT22;21661;50.794;-1.066;2023-04-24T08:42:01;10.60;99.90
35559;DHT22;21661;50.794;-1.066;2023-04-24T08:44:32;10.70;99.90
35559;DHT22;21661;50.794;-1.066;2023-04-24T08:46:58;10.80;99.90
35559;DHT22;21661;50.794;-1.066;2023-04-24T08:49:24;10.80;99.90
35559;DHT22;21661;50.794;-1.066;2023-04-24T08:51:52;10.90;99.90
35559;DHT22;21661;50.794;-1.066;2023-04-24T08:54:18;10.90;99.90
35559;DHT22;21661;50.794;-1.066;2023-04-24T08:56:45;11.00;99.90
35559;DHT22;21661;50.794;-1.066;2023-04-24T08:59:12;10.90;99.90
35559;DHT22;21661;50.794;-1.066;2023-04-24T09:01:40;11.00;99.90
35559;DHT22;21661;50.794;-1.066;2023-04-24T09:04:07;11.00;99.90
35559;DHT22;21661;50.794;-1.066;2023-04-24T09:06:35;11.10;99.90
35559;DHT22;21661;50.794;-1.066;2023-04-24T09:09:01;11.30;99.90
35559;DHT22;21661;50.794;-1.066;2023-04-24T09:11:27;11.50;99.90
35559;DHT22;21661;50.794;-1.066;2023-04-24T09:13:56;11.50;99.90
35559;DHT22;21661;50.794;-1.066;2023-04-24T09:16:22;11.60;99.90
35559;DHT22;21661;50.794;-1.066;2023-04-24T09:18:50;11.60;99.90
35559;DHT22;21661;50.794;-1.066;2023-04-24T09:21:15;11.70;99.90
35559;DHT22;21661;50.794;-1.066;2023-04-24T09:23:41;11.60;99.90
35559;DHT22;21661;50.794;-1.066;2023-04-24T09:26:09;11.70;99.90
35559;DHT22;21661;50.794;-1.066;2023-04-24T09:28:38;11.70;99.90
35559;DHT22;21661;50.794;-1.066;2023-04-24T09:33:33;11.80;99.90
35559;DHT22;21661;50.794;-1.066;2023-04-24T09:35:59;11.80;99.90
35559;DHT22;21661;50.794;-1.066;2023-04-24T09:38:32;12.00;99.90
35559;DHT22;21661;50.794;-1.066;2023-04-24T09:41:06;12.20;99.90
35559;DHT22;21661;50.794;-1.066;2023-04-24T09:43:32;12.30;99.90
35559;DHT22;21661;50.794;-1.066;2023-04-24T09:45:59;12.50;99.90
35559;DHT22;21661;50.794;-1.066;2023-04-24T09:48:36;12.60;99.90
35559;DHT22;21661;50.794;-1.066;2023-04-24T09:51:04;12.70;99.90
35559;DHT22;21661;50.794;-1.066;2023-04-24T09:53:32;12.70;99.90
35559;DHT22;21661;50.794;-1.066;2023-04-24T09:56:08;12.80;99.90
35559;DHT22;21661;50.794;-1.066;2023-04-24T09:58:35;12.90;99.90
35559;DHT22;21661;50.794;-1.066;2023-04-24T10:01:01;12.90;99.90
35559;DHT22;21661;50.794;-1.066;2023-04-24T10:03:30;12.90;99.90
35559;DHT22;21661;50.794;-1.066;2023-04-24T10:06:00;12.80;99.90
35559;DHT22;21661;50.794;-1.066;2023-04-24T10:08:26;12.80;99.90
35559;DHT22;21661;50.794;-1.066;2023-04-24T10:10:58;12.90;99.90
35559;DHT22;21661;50.794;-1.066;2023-04-24T10:13:25;12.90;99.90
35559;DHT22;21661;50.794;-1.066;2023-04-24T10:15:51;12.80;99.90
35559;DHT22;21661;50.794;-1.066;2023-04-24T10:18:17;12.90;99.90
35559;DHT22;21661;50.794;-1.066;2023-04-24T10:20:43;12.90;99.90
35559;DHT22;21661;50.794;-1.066;2023-04-24T10:23:08;12.90;99.90
35559;DHT22;21661;50.794;-1.066;2023-04-24T10:25:35;12.90;99.90
35559;DHT22;21661;50.794;-1.066;2023-04-24T10:28:03;12.80;99.90
35559;DHT22;21661;50.794;-1.066;2023-04-24T10:30:34;12.80;99.90
35559;DHT22;21661;50.794;-1.066;2023-04-24T10:33:03;12.60;99.90
35559;DHT22;21661;50.794;-1.066;2023-04-24T10:35:36;12.70;99.90
35559;DHT22;21661;50.794;-1.066;2023-04-24T10:38:05;12.80;99.90
35559;DHT22;21661;50.794;-1.066;2023-04-24T10:40:34;12.80;99.90
35559;DHT22;21661;50.794;-1.066;2023-04-24T10:43:02;12.80;99.90
35559;DHT22;21661;50.794;-1.066;2023-04-24T10:45:28;12.80;99.90
35559;DHT22;21661;50.794;-1.066;2023-04-24T10:48:09;12.80;99.90
35559;DHT22;21661;50.794;-1.066;2023-04-24T10:50:47;12.80;99.90
35559;DHT22;21661;50.794;-1.066;2023-04-24T10:53:21;12.80;99.90
35559;DHT22;21661;50.794;-1.066;2023-04-24T10:55:52;12.80;99.90
35559;DHT22;21661;50.794;-1.066;2023-04-24T10:58:23;12.70;99.90
35559;DHT22;21661;50.794;-1.066;2023-04-24T11:00:57;12.80;99.90
35559;DHT22;21661;50.794;-1.066;2023-04-24T11:03:28;12.80;99.90
35559;DHT22;21661;50.794;-1.066;2023-04-24T11:06:06;12.80;99.90
35559;DHT22;21661;50.794;-1.066;2023-04-24T11:08:43;12.70;99.90
35559;DHT22;21661;50.794;-1.066;2023-04-24T11:11:18;12.60;99.90
35559;DHT22;21661;50.794;-1.066;2023-04-24T11:16:25;12.50;99.90
35559;DHT22;21661;50.794;-1.066;2023-04-24T11:19:11;12.40;99.90
35559;DHT22;21661;50.794;-1.066;2023-04-24T11:25:09;12.70;99.90
35559;DHT22;21661;50.794;-1.066;2023-04-24T11:27:20;12.80;99.90
35559;DHT22;21661;50.794;-1.066;2023-04-24T11:32:36;13.20;99.90
35559;DHT22;21661;50.794;-1.066;2023-04-24T11:35:14;13.50;99.90
35559;DHT22;21661;50.794;-1.066;2023-04-24T11:37:43;13.60;99.90
35559;DHT22;21661;50.794;-1.066;2023-04-24T11:40:12;13.70;99.90
35559;DHT22;21661;50.794;-1.066;2023-04-24T11:42:43;13.70;99.90
35559;DHT22;21661;50.794;-1.066;2023-04-24T11:47:35;13.90;99.90
35559;DHT22;21661;50.794;-1.066;2023-04-24T11:50:06;14.00;99.90
35559;DHT22;21661;50.794;-1.066;2023-04-24T11:52:37;13.80;99.90
35559;DHT22;21661;50.794;-1.066;2023-04-24T11:55:03;13.70;99.90
35559;DHT22;21661;50.794;-1.066;2023-04-24T11:57:29;13.80;99.90
35559;DHT22;21661;50.794;-1.066;2023-04-24T12:00:00;13.80;99.90
35559;DHT22;21661;50.794;-1.066;2023-04-24T12:02:26;13.90;99.90
35559;DHT22;21661;50.794;-1.066;2023-04-24T12:04:55;13.90;99.90
35559;DHT22;21661;50.794;-1.066;2023-04-24T12:07:22;13.90;99.90
35559;DHT22;21661;50.794;-1.066;2023-04-24T12:09:57;14.10;99.90
35559;DHT22;21661;50.794;-1.066;2023-04-24T12:12:27;14.20;99.90
35559;DHT22;21661;50.794;-1.066;2023-04-24T12:14:55;14.40;99.90
35559;DHT22;21661;50.794;-1.066;2023-04-24T12:17:29;14.50;99.90
35559;DHT22;21661;50.794;-1.066;2023-04-24T12:20:01;14.40;99.90
35559;DHT22;21661;50.794;-1.066;2023-04-24T12:22:28;14.50;99.90
35559;DHT22;21661;50.794;-1.066;2023-04-24T12:25:02;14.60;99.90
35559;DHT22;21661;50.794;-1.066;2023-04-24T12:27:33;14.50;99.90
35559;DHT22;21661;50.794;-1.066;2023-04-24T12:30:00;14.50;99.90
35559;DHT22;21661;50.794;-1.066;2023-04-24T12:32:26;14.40;99.90
35559;DHT22;21661;50.794;-1.066;2023-04-24T12:34:53;14.30;99.90
35559;DHT22;21661;50.794;-1.066;2023-04-24T12:37:19;14.20;99.90
35559;DHT22;21661;50.794;-1.066;2023-04-24T12:40:09;14.10;99.90
35559;DHT22;21661;50.794;-1.066;2023-04-24T12:42:35;14.20;99.90
35559;DHT22;21661;50.794;-1.066;2023-04-24T12:45:05;14.20;99.90
35559;DHT22;21661;50.794;-1.066;2023-04-24T12:47:32;14.30;99.90
35559;DHT22;21661;50.794;-1.066;2023-04-24T12:49:58;14.10;99.90
35559;DHT22;21661;50.794;-1.066;2023-04-24T12:52:26;14.10;99.90
35559;DHT22;21661;50.794;-1.066;2023-04-24T12:54:53;14.00;99.90
35559;DHT22;21661;50.794;-1.066;2023-04-24T12:57:20;14.10;99.90
35559;DHT22;21661;50.794;-1.066;2023-04-24T12:59:46;14.40;99.90
35559;DHT22;21661;50.794;-1.066;2023-04-24T13:02:12;14.60;99.90
35559;DHT22;21661;50.794;-1.066;2023-04-24T13:04:38;14.70;99.90
35559;DHT22;21661;50.794;-1.066;2023-04-24T13:07:04;14.80;99.90
35559;DHT22;21661;50.794;-1.066;2023-04-24T13:09:30;15.00;99.90
35559;DHT22;21661;50.794;-1.066;2023-04-24T13:11:56;15.10;99.90
35559;DHT22;21661;50.794;-1.066;2023-04-24T13:14:23;15.00;99.90
35559;DHT22;21661;50.794;-1.066;2023-04-24T13:16:49;15.00;99.90
35559;DHT22;21661;50.794;-1.066;2023-04-24T13:19:14;14.90;99.90
35559;DHT22;21661;50.794;-1.066;2023-04-24T13:21:40;14.90;99.90
35559;DHT22;21661;50.794;-1.066;2023-04-24T13:24:06;14.80;99.90
35559;DHT22;21661;50.794;-1.066;2023-04-24T13:26:33;14.70;99.90
35559;DHT22;21661;50.794;-1.066;2023-04-24T13:28:58;14.80;99.90
35559;DHT22;21661;50.794;-1.066;2023-04-24T13:31:24;14.90;99.90
35559;DHT22;21661;50.794;-1.066;2023-04-24T13:33:50;15.00;99.90
35559;DHT22;21661;50.794;-1.066;2023-04-24T13:36:15;15.10;99.90
35559;DHT22;21661;50.794;-1.066;2023-04-24T13:38:43;15.10;99.90
35559;DHT22;21661;50.794;-1.066;2023-04-24T13:41:09;15.00;99.90
35559;DHT22;21661;50.794;-1.066;2023-04-24T13:43:35;15.10;99.90
35559;DHT22;21661;50.794;-1.066;2023-04-24T13:46:01;14.90;99.90
35559;DHT22;21661;50.794;-1.066;2023-04-24T13:48:28;14.80;99.90
35559;DHT22;21661;50.794;-1.066;2023-04-24T13:50:54;14.80;99.90
35559;DHT22;21661;50.794;-1.066;2023-04-24T13:53:20;14.90;99.90
35559;DHT22;21661;50.794;-1.066;2023-04-24T13:55:45;15.10;99.90
35559;DHT22;21661;50.794;-1.066;2023-04-24T13:58:11;15.10;99.90
35559;DHT22;21661;50.794;-1.066;2023-04-24T14:00:37;14.90;99.90
35559;DHT22;21661;50.794;-1.066;2023-04-24T14:03:02;14.70;99.90
35559;DHT22;21661;50.794;-1.066;2023-04-24T14:05:28;14.60;99.90
35559;DHT22;21661;50.794;-1.066;2023-04-24T14:07:53;14.40;99.90
35559;DHT22;21661;50.794;-1.066;2023-04-24T14:10:19;14.30;99.90
35559;DHT22;21661;50.794;-1.066;2023-04-24T14:12:45;14.40;99.90
35559;DHT22;21661;50.794;-1.066;2023-04-24T14:15:10;14.60;99.90
35559;DHT22;21661;50.794;-1.066;2023-04-24T14:17:37;14.70;99.90
35559;DHT22;21661;50.794;-1.066;2023-04-24T14:20:03;14.80;99.90
35559;DHT22;21661;50.794;-1.066;2023-04-24T14:22:29;14.80;99.90
35559;DHT22;21661;50.794;-1.066;2023-04-24T14:24:55;14.80;99.90
35559;DHT22;21661;50.794;-1.066;2023-04-24T14:27:21;14.80;99.90
35559;DHT22;21661;50.794;-1.066;2023-04-24T14:29:46;14.90;99.90
35559;DHT22;21661;50.794;-1.066;2023-04-24T14:32:12;14.90;99.90
35559;DHT22;21661;50.794;-1.066;2023-04-24T14:34:40;14.80;99.90
35559;DHT22;21661;50.794;-1.066;2023-04-24T14:37:06;15.00;99.90
35559;DHT22;21661;50.794;-1.066;2023-04-24T14:39:31;15.10;99.90
35559;DHT22;21661;50.794;-1.066;2023-04-24T14:41:57;15.10;99.90
35559;DHT22;21661;50.794;-1.066;2023-04-24T14:44:22;15.10;99.90
35559;DHT22;21661;50.794;-1.066;2023-04-24T14:46:48;15.20;99.90
35559;DHT22;21661;50.794;-1.066;2023-04-24T14:49:14;15.00;99.90
35559;DHT22;21661;50.794;-1.066;2023-04-24T14:51:40;14.90;99.90
35559;DHT22;21661;50.794;-1.066;2023-04-24T14:54:06;15.00;99.90
35559;DHT22;21661;50.794;-1.066;2023-04-24T14:56:32;15.00;99.90
35559;DHT22;21661;50.794;-1.066;2023-04-24T14:58:58;15.20;99.90
35559;DHT22;21661;50.794;-1.066;2023-04-24T15:01:23;15.20;99.90
35559;DHT22;21661;50.794;-1.066;2023-04-24T15:03:49;15.20;99.90
35559;DHT22;21661;50.794;-1.066;2023-04-24T15:06:15;15.20;99.90
35559;DHT22;21661;50.794;-1.066;2023-04-24T15:08:41;15.10;99.90
35559;DHT22;21661;50.794;-1.066;2023-04-24T15:11:09;15.00;99.90
35559;DHT22;21661;50.794;-1.066;2023-04-24T15:13:35;14.70;99.90
35559;DHT22;21661;50.794;-1.066;2023-04-24T15:16:01;14.50;99.90
35559;DHT22;21661;50.794;-1.066;2023-04-24T15:18:27;14.50;99.90
35559;DHT22;21661;50.794;-1.066;2023-04-24T15:20:54;14.50;99.90
35559;DHT22;21661;50.794;-1.066;2023-04-24T15:23:20;14.40;99.90
35559;DHT22;21661;50.794;-1.066;2023-04-24T15:25:46;14.20;99.90
35559;DHT22;21661;50.794;-1.066;2023-04-24T15:28:12;14.30;99.90
35559;DHT22;21661;50.794;-1.066;2023-04-24T15:30:37;14.20;99.90
35559;DHT22;21661;50.794;-1.066;2023-04-24T15:33:03;14.10;99.90